Terminal Aerodrome Forecast
Issued by NWS

Current Version | Previous Version | Text Only | Print | Product List | Glossary On
Versions: 1 2 3 4 5 6 7 8 9 10 11 12 13 14 15
000
FTUS41 KILN 301700
TAFLCK
TAF
KLCK 301740Z 3018/3118 22012G20KT P6SM SCT060 BKN200
     FM302300 20010KT P6SM -SHRA VCTS SCT050CB OVC120
     FM310100 21007KT P6SM -SHRA SCT050 OVC120
     FM310300 20007KT 3SM -SHRA BR SCT012 BKN050
     FM310600 19005KT 3SM -SHRA BR OVC012
     FM311400 20008KT P6SM VCSH OVC018
     FM311600 21010KT P6SM -SHRA VCTS BKN025CB=

USA.gov is the U.S. government's official web portal to all federal, state and local government web resources and services.